createdAt,value
2022-10-28T05:03:00.813Z,47.67
2022-10-28T05:10:25.141Z,52.30
2022-10-28T05:22:47.288Z,31.25
2022-10-28T05:27:43.525Z,36.95
2022-10-28T08:43:40.295Z,10.60
2022-10-28T09:00:25.716Z,11.40
2022-10-28T09:03:12.275Z,7.78
2022-10-28T09:05:42.589Z,9.07
2022-10-28T09:08:22.373Z,9.68
2022-10-28T09:11:17.701Z,7.53
2022-10-28T09:13:48.631Z,7.43
2022-10-28T09:16:28.787Z,6.05
2022-10-28T09:18:58.979Z,8.35
2022-10-28T09:21:53.092Z,5.60
2022-10-28T09:24:27.511Z,8.60
2022-10-28T09:27:01.590Z,6.13
2022-10-28T09:29:54.119Z,5.15
2022-10-28T09:32:37.404Z,6.03
2022-10-28T09:35:36.463Z,5.88
2022-10-28T09:38:16.229Z,4.68
2022-10-28T09:40:55.027Z,3.65
2022-10-28T09:43:28.307Z,5.88
2022-10-28T09:46:20.748Z,5.63
2022-10-28T09:48:56.201Z,5.28
2022-10-28T09:51:32.530Z,5.75
2022-10-28T09:54:01.367Z,4.45
2022-10-28T09:56:30.731Z,7.05
2022-10-28T09:59:02.018Z,4.05
2022-10-28T10:04:01.478Z,3.88
2022-10-28T10:06:36.461Z,5.55
2022-10-28T10:09:05.291Z,6.40
2022-10-28T10:11:38.987Z,5.28
2022-10-28T10:14:12.034Z,5.55
2022-10-28T10:16:48.925Z,6.35
2022-10-28T10:19:17.234Z,4.15
2022-10-28T10:21:51.240Z,5.72
2022-10-28T10:24:35.370Z,3.13
2022-10-28T10:27:19.347Z,3.53
2022-10-28T10:29:51.104Z,5.60
2022-10-28T10:32:25.066Z,3.88
2022-10-28T10:35:04.713Z,4.28
2022-10-28T10:37:36.372Z,5.20
2022-10-28T10:40:22.929Z,3.35
2022-10-28T10:43:12.925Z,3.05
2022-10-28T10:45:59.293Z,6.47
2022-10-28T10:48:29.314Z,3.90
2022-10-28T10:50:57.630Z,10.95
2022-10-28T10:53:27.572Z,5.13
2022-10-28T10:56:01.786Z,4.07
2022-10-28T10:58:37.588Z,3.45
2022-10-28T11:01:07.716Z,6.97
2022-10-28T11:03:48.295Z,4.93
2022-10-28T11:06:26.399Z,5.50
2022-10-28T11:09:01.282Z,3.58
2022-10-28T11:11:40.507Z,3.75
2022-10-28T11:14:11.657Z,4.25
2022-10-28T11:16:57.161Z,2.42
2022-10-28T11:19:36.716Z,4.07
2022-10-28T11:22:33.707Z,6.68
2022-10-28T11:25:17.044Z,5.57
2022-10-28T11:28:09.644Z,5.90
2022-10-28T11:35:03.317Z,6.70
2022-10-28T11:37:55.382Z,4.15
2022-10-28T11:41:11.212Z,4.35
2022-10-28T11:43:59.676Z,5.88
2022-10-28T11:46:48.806Z,6.13
2022-10-28T11:49:40.372Z,3.22
2022-10-28T11:52:23.278Z,7.10
2022-10-28T11:55:12.986Z,4.03
2022-10-28T12:01:22.186Z,3.78
2022-10-28T12:04:14.266Z,7.22
2022-10-28T12:07:10.412Z,4.15
2022-10-28T12:09:57.860Z,4.45
2022-10-28T12:12:41.299Z,5.95
2022-10-28T12:15:09.524Z,4.78
2022-10-28T12:17:57.712Z,5.28
2022-10-28T12:20:52.782Z,6.97
2022-10-28T12:23:23.614Z,6.13
2022-10-28T12:25:55.837Z,4.87
2022-10-28T12:28:45.756Z,5.65
2022-10-28T12:31:24.577Z,4.03
2022-10-28T12:33:57.480Z,4.68
2022-10-28T12:36:45.240Z,6.57
2022-10-28T12:39:25.564Z,4.15
2022-10-28T12:42:28.862Z,5.85
2022-10-28T12:44:59.134Z,7.35
2022-10-28T12:47:49.223Z,6.60
2022-10-28T12:50:42.338Z,3.83
2022-10-28T12:53:16.186Z,4.07
2022-10-28T12:55:50.482Z,5.68
2022-10-28T12:58:31.472Z,4.22
2022-10-28T13:01:09.291Z,7.22
2022-10-28T13:03:37.637Z,4.10
2022-10-28T13:06:27.345Z,5.93
2022-10-28T13:09:23.047Z,5.18
2022-10-28T13:12:09.326Z,8.48
2022-10-28T13:14:59.356Z,3.63
2022-10-28T13:18:12.429Z,5.95
2022-10-28T13:21:02.200Z,6.30
2022-10-28T13:23:57.960Z,6.75
2022-10-28T13:26:29.880Z,7.70
2022-10-28T13:29:00.756Z,8.07
2022-10-28T13:31:41.505Z,13.35
2022-10-28T13:34:12.704Z,15.35
2022-10-28T13:36:44.417Z,6.45
2022-10-28T13:39:28.012Z,5.53
2022-10-28T13:42:18.934Z,5.47
2022-10-28T13:44:58.740Z,5.47
2022-10-28T13:47:26.766Z,7.30
2022-10-28T13:50:06.920Z,4.97
2022-10-28T13:52:41.132Z,3.70
2022-10-28T13:55:48.156Z,8.90
2022-10-28T13:58:25.053Z,8.18
2022-10-28T14:00:54.008Z,5.22
2022-10-28T14:03:27.331Z,9.65
2022-10-28T14:05:59.478Z,6.57
2022-10-28T14:08:44.875Z,6.32
2022-10-28T14:11:22.987Z,4.63
2022-10-28T14:13:55.555Z,6.50
2022-10-28T14:16:33.638Z,10.20
2022-10-28T14:19:10.908Z,9.15
2022-10-28T14:21:41.132Z,6.82
2022-10-28T14:24:13.096Z,5.90
2022-10-28T14:27:06.046Z,5.05
2022-10-28T14:30:10.084Z,4.32
2022-10-28T14:32:38.260Z,7.68
2022-10-28T14:35:38.996Z,8.18
2022-10-28T14:38:37.847Z,7.30
2022-10-28T14:41:34.689Z,5.20
2022-10-28T14:44:24.550Z,5.35
2022-10-28T14:47:10.900Z,7.65
2022-10-28T14:49:40.550Z,8.05
2022-10-28T14:52:16.473Z,11.82
2022-10-28T14:54:50.219Z,8.15
2022-10-28T14:57:19.499Z,5.78
2022-10-28T14:59:50.853Z,5.95
2022-10-28T15:02:23.555Z,5.00
2022-10-28T15:05:14.848Z,6.65
2022-10-28T15:07:43.770Z,8.02
2022-10-28T15:10:30.014Z,7.53
2022-10-28T15:13:00.264Z,11.68
2022-10-28T15:15:52.420Z,6.38
2022-10-28T15:18:23.557Z,8.43
2022-10-28T15:21:09.117Z,8.70
2022-10-28T15:23:37.163Z,9.40
2022-10-28T15:26:14.353Z,7.93
2022-10-28T15:28:43.448Z,10.57
2022-10-28T15:31:11.792Z,10.48
2022-10-28T15:33:42.074Z,5.13
2022-10-28T15:36:23.163Z,3.78
2022-10-28T15:39:06.001Z,8.57
2022-10-28T15:44:36.830Z,6.75
2022-10-28T15:47:24.019Z,10.45
2022-10-28T15:50:02.021Z,7.20
2022-10-28T15:53:15.795Z,7.78
2022-10-28T15:58:55.389Z,7.88
2022-10-28T16:01:40.988Z,5.63
2022-10-28T16:04:17.830Z,10.30
2022-10-28T16:06:52.110Z,8.13
2022-10-28T16:09:36.742Z,8.98
2022-10-28T16:12:25.347Z,11.55
2022-10-28T16:15:01.515Z,14.40
2022-10-28T16:17:33.903Z,11.07
2022-10-28T16:20:18.928Z,10.07
2022-10-28T16:22:48.058Z,14.80
2022-10-28T16:25:21.619Z,12.98
2022-10-28T16:27:51.402Z,16.35
2022-10-28T16:30:19.694Z,14.15
2022-10-28T16:32:49.634Z,10.93
2022-10-28T16:35:20.260Z,15.70
2022-10-28T16:37:54.761Z,9.95
2022-10-28T16:40:50.255Z,10.38
2022-10-28T16:43:20.162Z,14.82
2022-10-28T16:49:40.839Z,15.60
2022-10-28T16:52:20.390Z,15.93
2022-10-28T16:54:49.316Z,13.98
2022-10-28T16:57:19.436Z,16.80
2022-10-28T16:59:48.416Z,11.68
2022-10-28T17:02:30.283Z,13.30
2022-10-28T17:04:59.390Z,11.65
2022-10-28T17:11:14.105Z,14.23
2022-10-28T17:13:42.445Z,14.50
2022-10-28T17:16:10.630Z,14.88
2022-10-28T17:18:38.944Z,14.80
2022-10-28T17:21:07.078Z,10.50
2022-10-28T17:23:35.686Z,16.17
2022-10-28T17:26:03.734Z,9.23
2022-10-28T17:28:33.293Z,10.10
2022-10-28T17:31:03.928Z,12.95
2022-10-28T17:33:32.557Z,11.68
2022-10-28T17:36:05.909Z,12.32
2022-10-28T17:38:34.489Z,13.10
2022-10-28T17:41:02.612Z,17.52
2022-10-28T17:47:22.219Z,13.63
2022-10-28T17:49:50.544Z,12.45
2022-10-28T17:52:18.562Z,15.20
2022-10-28T17:55:05.504Z,14.25
2022-10-28T17:57:48.834Z,13.23
2022-10-28T18:00:35.096Z,14.75
2022-10-28T18:03:18.244Z,17.40
2022-10-28T18:09:37.379Z,15.45
2022-10-28T18:12:05.826Z,18.38
2022-10-28T18:14:33.986Z,19.58
2022-10-28T18:17:02.234Z,15.05
2022-10-28T18:19:30.337Z,13.63
2022-10-28T18:21:58.612Z,17.10
2022-10-28T18:24:26.719Z,14.82
2022-10-28T18:26:55.121Z,14.52
2022-10-28T18:29:23.436Z,12.90
2022-10-28T18:31:51.676Z,11.70
2022-10-28T18:34:19.741Z,18.77
2022-10-28T18:36:47.992Z,20.52
2022-10-28T18:39:16.019Z,21.73
2022-10-28T18:41:44.252Z,22.20
2022-10-28T18:44:14.156Z,21.85
2022-10-28T18:46:42.709Z,29.85
2022-10-28T18:49:10.907Z,28.33
2022-10-28T18:51:39.185Z,21.75
2022-10-28T18:54:07.320Z,24.60
2022-10-28T18:56:35.394Z,27.10
2022-10-28T18:59:04.661Z,22.13
2022-10-28T19:01:33.592Z,17.33
2022-10-28T19:04:03.466Z,15.93
2022-10-28T19:06:33.246Z,14.45
2022-10-28T19:09:04.396Z,13.57
2022-10-28T19:11:34.937Z,17.75
2022-10-28T19:14:06.193Z,16.02
2022-10-28T19:16:36.757Z,18.48
2022-10-28T19:19:05.865Z,18.45
2022-10-28T19:21:34.486Z,28.25
2022-10-28T19:24:06.417Z,23.77
2022-10-28T19:29:06.681Z,15.50
2022-10-28T19:31:36.547Z,16.02
2022-10-28T19:34:04.617Z,13.55
2022-10-28T19:36:33.811Z,16.67
2022-10-28T19:39:03.167Z,18.63
2022-10-28T19:41:32.648Z,14.95
2022-10-28T19:44:02.338Z,16.70
2022-10-28T19:46:34.309Z,12.80
2022-10-28T19:49:06.698Z,15.38
2022-10-28T19:51:40.622Z,22.85
2022-10-28T19:54:17.786Z,27.52
2022-10-28T19:56:48.325Z,20.85
2022-10-28T19:59:16.337Z,23.73
2022-10-28T20:01:44.695Z,20.90
2022-10-28T20:04:12.894Z,17.27
2022-10-28T20:06:41.933Z,21.23
2022-10-28T20:09:10.054Z,18.60
2022-10-28T20:11:41.045Z,18.98
2022-10-28T20:14:11.430Z,24.58
2022-10-28T20:16:42.072Z,17.80
2022-10-28T20:19:10.117Z,16.17
2022-10-28T20:21:39.220Z,20.13
2022-10-28T20:24:08.021Z,18.58
2022-10-28T20:26:38.444Z,15.35
2022-10-28T20:29:06.844Z,15.02
2022-10-28T20:31:37.916Z,14.20
2022-10-28T20:34:07.217Z,16.98
2022-10-28T20:36:40.683Z,14.15
2022-10-28T20:39:21.037Z,15.32
2022-10-28T20:41:58.599Z,15.98
2022-10-28T20:44:27.028Z,14.35
2022-10-28T20:46:55.047Z,13.10
2022-10-28T20:49:23.263Z,15.10
2022-10-28T20:51:52.455Z,14.02
2022-10-28T20:54:21.924Z,14.40
2022-10-28T20:56:50.237Z,14.05
2022-10-28T20:59:18.574Z,10.70
2022-10-28T21:01:49.637Z,12.30
2022-10-28T21:04:17.902Z,11.90
2022-10-28T21:06:45.955Z,11.98
2022-10-28T21:09:14.146Z,14.38
2022-10-28T21:11:44.543Z,13.77
2022-10-28T21:14:12.732Z,16.02
2022-10-28T21:16:40.895Z,17.38
2022-10-28T21:19:09.068Z,18.45
2022-10-28T21:21:37.065Z,18.38
2022-10-28T21:24:08.439Z,14.90
2022-10-28T21:26:36.653Z,11.50
2022-10-28T21:29:04.948Z,11.85
2022-10-28T21:31:37.460Z,11.55
2022-10-28T21:34:08.254Z,18.08
2022-10-28T21:36:36.757Z,17.40
2022-10-28T21:39:10.236Z,15.07
2022-10-28T21:41:38.309Z,16.08
2022-10-28T21:44:06.605Z,20.13
2022-10-28T21:46:35.855Z,17.90
2022-10-28T21:49:04.094Z,15.07
2022-10-28T21:51:32.177Z,16.73
2022-10-28T21:54:03.107Z,14.20
2022-10-28T21:56:31.101Z,15.52
2022-10-28T21:59:00.780Z,14.48
2022-10-28T22:01:28.910Z,15.95
2022-10-28T22:03:57.106Z,14.70
2022-10-28T22:06:25.465Z,14.30
2022-10-28T22:08:55.119Z,13.48
2022-10-28T22:11:24.245Z,14.95
2022-10-28T22:14:03.939Z,17.57
2022-10-28T22:16:34.396Z,14.60
2022-10-28T22:19:05.850Z,15.07
2022-10-28T22:21:37.459Z,13.75
2022-10-28T22:24:06.754Z,14.63
2022-10-28T22:26:35.092Z,11.10
2022-10-28T22:29:05.919Z,11.63
2022-10-28T22:31:34.210Z,9.23
2022-10-28T22:34:02.448Z,14.57
2022-10-28T22:36:30.449Z,11.13
2022-10-28T22:38:58.811Z,13.52
2022-10-28T22:41:28.846Z,14.85
2022-10-28T22:44:01.876Z,19.42
2022-10-28T22:46:33.628Z,19.17
2022-10-28T22:49:01.625Z,49.50
2022-10-28T22:51:29.877Z,11.65
2022-10-28T22:53:58.179Z,13.68
2022-10-28T22:56:26.958Z,12.60
2022-10-28T22:58:57.514Z,17.77
2022-10-28T23:01:27.085Z,11.88
2022-10-28T23:03:55.911Z,11.50
2022-10-28T23:06:26.296Z,11.80
2022-10-28T23:08:54.620Z,15.15
2022-10-28T23:11:23.568Z,14.00
2022-10-28T23:13:53.306Z,13.00
2022-10-28T23:16:23.280Z,14.50
2022-10-28T23:18:51.554Z,18.00
2022-10-28T23:21:23.406Z,14.43
2022-10-28T23:23:59.138Z,14.95
2022-10-28T23:26:28.864Z,14.57
2022-10-28T23:28:59.432Z,13.65
2022-10-28T23:31:27.871Z,13.63
2022-10-28T23:33:56.281Z,17.20
2022-10-28T23:36:24.231Z,14.60
2022-10-28T23:38:52.281Z,11.30
2022-10-28T23:41:20.541Z,19.02
2022-10-28T23:43:48.850Z,21.08
2022-10-28T23:46:17.393Z,14.88
2022-10-28T23:48:45.846Z,14.48
2022-10-28T23:51:18.735Z,14.93
2022-10-28T23:53:47.050Z,13.85
2022-10-28T23:56:15.037Z,14.13
2022-10-28T23:58:43.044Z,16.00
